Time;durP1;ratioP1;P1;durP2;ratioP2;P2;SDS_P1;SDS_P2;PMS_P1;PMS_P2;Temp;Humidity;BMP_temperature;BMP_pressure;BME280_temperature;BME280_humidity;BME280_pressure;Samples;Min_cycle;Max_cycle;Signal;HPM_P1;HPM_P2
2021/12/11 00:01:17;;;;;;;6.90;1.65;;;;;;;;;;5033690;28;20503;-80
2021/12/11 00:03:51;;;;;;;2.30;0.73;;;;;;;;;;5017870;28;20096;-80
2021/12/11 00:06:21;;;;;;;2.63;0.98;;;;;;;;;;5016558;28;20045;-87
2021/12/11 00:08:57;;;;;;;1.42;0.80;;;;;;;;;;5016234;28;20544;-93
2021/12/11 00:11:27;;;;;;;1.55;0.70;;;;;;;;;;5017792;28;20054;-85
2021/12/11 00:13:56;;;;;;;0.90;0.77;;;;;;;;;;5032387;28;20049;-80
2021/12/11 00:16:25;;;;;;;0.93;0.47;;;;;;;;;;5015584;28;20045;-79
2021/12/11 00:18:54;;;;;;;0.93;0.60;;;;;;;;;;5017363;28;20546;-91
2021/12/11 00:21:24;;;;;;;2.40;0.70;;;;;;;;;;5017542;28;20493;-86
2021/12/11 00:23:57;;;;;;;1.80;0.70;;;;;;;;;;5033854;28;20038;-79
2021/12/11 00:26:38;;;;;;;3.73;0.40;;;;;;;;;;5016381;28;20045;-86
2021/12/11 00:29:07;;;;;;;0.30;0.30;;;;;;;;;;5017369;28;20073;-86
2021/12/11 00:31:35;;;;;;;2.15;1.63;;;;;;;;;;5016951;28;20041;-79
2021/12/11 00:34:04;;;;;;;1.42;0.25;;;;;;;;;;5033700;28;20042;-85
2021/12/11 00:36:33;;;;;;;0.98;0.30;;;;;;;;;;5034740;28;20390;-86
2021/12/11 00:39:05;;;;;;;0.63;0.10;;;;;;;;;;5034366;28;20037;-85
2021/12/11 00:41:33;;;;;;;0.05;0.05;;;;;;;;;;5016518;28;20042;-79
2021/12/11 00:44:03;;;;;;;0.52;0.10;;;;;;;;;;5019749;28;20053;-80
2021/12/11 00:46:31;;;;;;;0.45;0.20;;;;;;;;;;5019751;28;20038;-80
2021/12/11 00:49:31;;;;;;;0.10;0.10;;;;;;;;;;5004369;28;20045;-80
2021/12/11 00:52:00;;;;;;;0.10;0.10;;;;;;;;;;5046204;28;20131;-80
2021/12/11 00:54:28;;;;;;;0.28;0.28;;;;;;;;;;5022773;28;20056;-80
2021/12/11 00:56:55;;;;;;;0.65;0.28;;;;;;;;;;5024405;28;20045;-89
2021/12/11 00:59:26;;;;;;;0.10;0.10;;;;;;;;;;5039340;28;20124;-85
2021/12/11 01:01:57;;;;;;;0.70;0.30;;;;;;;;;;5056583;28;20068;-79
2021/12/11 01:04:25;;;;;;;0.30;0.30;;;;;;;;;;5038917;28;20100;-85
2021/12/11 01:06:55;;;;;;;0.10;0.10;;;;;;;;;;5054464;28;20036;-80
2021/12/11 01:09:25;;;;;;;1.10;0.10;;;;;;;;;;5039559;28;20045;-90
2021/12/11 01:12:14;;;;;;;0.10;0.10;;;;;;;;;;5040356;28;20041;-89
2021/12/11 01:14:51;;;;;;;0.70;0.30;;;;;;;;;;5057706;28;20088;-79
2021/12/11 01:17:24;;;;;;;0.28;0.20;;;;;;;;;;5039183;28;20091;-79
2021/12/11 01:19:55;;;;;;;0.28;0.20;;;;;;;;;;5056673;28;20124;-87
2021/12/11 01:22:35;;;;;;;1.40;0.30;;;;;;;;;;5039343;28;20515;-88
2021/12/11 01:25:07;;;;;;;0.17;0.17;;;;;;;;;;5021382;28;20052;-79
2021/12/11 01:27:35;;;;;;;1.92;0.30;;;;;;;;;;5039176;28;20053;-88
2021/12/11 01:30:04;;;;;;;0.20;0.13;;;;;;;;;;5023110;28;20064;-88
2021/12/11 01:32:34;;;;;;;0.20;0.20;;;;;;;;;;5022888;28;20059;-84
2021/12/11 01:35:05;;;;;;;0.52;0.20;;;;;;;;;;5056321;28;20409;-79
2021/12/11 01:37:32;;;;;;;0.55;0.20;;;;;;;;;;5038061;28;20041;-87
2021/12/11 01:40:01;;;;;;;0.22;0.20;;;;;;;;;;5022895;28;20052;-83
2021/12/11 01:42:30;;;;;;;0.13;0.13;;;;;;;;;;5022246;28;20488;-79
2021/12/11 01:44:59;;;;;;;3.30;0.30;;;;;;;;;;5039273;28;20045;-79
2021/12/11 01:47:31;;;;;;;0.20;0.20;;;;;;;;;;5021944;28;20037;-88
2021/12/11 01:50:01;;;;;;;0.70;0.20;;;;;;;;;;5055469;28;20120;-78
2021/12/11 01:52:40;;;;;;;0.15;0.15;;;;;;;;;;5054985;28;20495;-78
2021/12/11 01:55:10;;;;;;;0.85;0.30;;;;;;;;;;5004916;28;20045;-83
2021/12/11 01:57:37;;;;;;;0.10;0.10;;;;;;;;;;5055785;28;20041;-78
2021/12/11 02:00:13;;;;;;;0.28;0.15;;;;;;;;;;5037218;28;20052;-78
2021/12/11 02:02:45;;;;;;;1.27;0.28;;;;;;;;;;5037200;28;20402;-88
2021/12/11 02:05:13;;;;;;;0.10;0.10;;;;;;;;;;5037367;28;20045;-78
2021/12/11 02:07:52;;;;;;;0.63;0.20;;;;;;;;;;5037816;28;20456;-88
2021/12/11 02:10:27;;;;;;;0.10;0.10;;;;;;;;;;5037398;28;20051;-88
2021/12/11 02:13:04;;;;;;;0.35;0.20;;;;;;;;;;5037668;28;20471;-82
2021/12/11 02:15:36;;;;;;;0.20;0.20;;;;;;;;;;5054961;28;20076;-79
2021/12/11 02:18:11;;;;;;;0.60;0.13;;;;;;;;;;5036981;28;20510;-83
2021/12/11 02:20:41;;;;;;;0.30;0.20;;;;;;;;;;5020580;28;20392;-88
2021/12/11 02:23:09;;;;;;;0.50;0.20;;;;;;;;;;5037096;28;20041;-87
2021/12/11 02:25:40;;;;;;;0.43;0.20;;;;;;;;;;5036800;28;20048;-82
2021/12/11 02:28:14;;;;;;;0.10;0.10;;;;;;;;;;5036989;28;20449;-78
2021/12/11 02:30:50;;;;;;;0.55;0.20;;;;;;;;;;5037215;28;20124;-82
2021/12/11 02:33:24;;;;;;;0.35;0.20;;;;;;;;;;5036379;28;20654;-78
2021/12/11 02:36:23;;;;;;;1.17;0.20;;;;;;;;;;5020302;28;20091;-79
2021/12/11 02:39:14;;;;;;;0.10;0.10;;;;;;;;;;5028110;28;20048;-87
2021/12/11 02:41:54;;;;;;;0.80;0.20;;;;;;;;;;5014899;28;20041;-82
2021/12/11 02:44:22;;;;;;;0.13;0.10;;;;;;;;;;5020066;28;20131;-79
2021/12/11 02:47:03;;;;;;;0.32;0.30;;;;;;;;;;5036729;28;20040;-81
2021/12/11 02:49:33;;;;;;;0.47;0.20;;;;;;;;;;5053901;28;20447;-78
2021/12/11 02:52:09;;;;;;;0.25;0.22;;;;;;;;;;5010865;28;20057;-79
2021/12/11 02:54:39;;;;;;;0.20;0.20;;;;;;;;;;5034109;28;20071;-81
2021/12/11 02:57:19;;;;;;;0.25;0.25;;;;;;;;;;5034234;28;20050;-78
2021/12/11 02:59:48;;;;;;;0.28;0.22;;;;;;;;;;5016615;28;20072;-82
2021/12/11 03:02:19;;;;;;;0.55;0.20;;;;;;;;;;5016752;28;20038;-88
2021/12/11 03:04:52;;;;;;;0.40;0.10;;;;;;;;;;5033539;28;20124;-82
2021/12/11 03:07:26;;;;;;;0.32;0.20;;;;;;;;;;5016554;28;20037;-78
2021/12/11 03:09:57;;;;;;;0.20;0.20;;;;;;;;;;5016546;28;20056;-87
2021/12/11 03:12:25;;;;;;;0.93;0.13;;;;;;;;;;5016169;28;20412;-79
2021/12/11 03:14:53;;;;;;;0.90;0.20;;;;;;;;;;5016038;28;20041;-78
2021/12/11 03:17:22;;;;;;;1.40;0.40;;;;;;;;;;4999956;28;20401;-78
2021/12/11 03:19:52;;;;;;;1.13;0.20;;;;;;;;;;5018995;28;20077;-79
2021/12/11 03:22:21;;;;;;;1.73;0.38;;;;;;;;;;4996695;28;20037;-87
2021/12/11 03:24:49;;;;;;;0.40;0.25;;;;;;;;;;4996522;28;20120;-79
2021/12/11 03:27:17;;;;;;;0.47;0.30;;;;;;;;;;4995892;28;20042;-78
2021/12/11 03:29:44;;;;;;;0.20;0.20;;;;;;;;;;4996642;28;20112;-79
2021/12/11 03:32:13;;;;;;;1.42;0.38;;;;;;;;;;4996827;28;20048;-79
2021/12/11 03:34:46;;;;;;;0.73;0.30;;;;;;;;;;4996373;28;20046;-79
2021/12/11 03:37:14;;;;;;;0.38;0.38;;;;;;;;;;5013866;28;20073;-78
2021/12/11 03:39:43;;;;;;;0.20;0.20;;;;;;;;;;4995956;28;20038;-78
2021/12/11 03:42:22;;;;;;;3.92;0.50;;;;;;;;;;4996324;28;20157;-78
2021/12/11 03:44:51;;;;;;;2.40;0.50;;;;;;;;;;4996280;28;20133;-81
2021/12/11 03:47:24;;;;;;;3.85;0.30;;;;;;;;;;4980091;28;20462;-78
2021/12/11 03:49:54;;;;;;;1.38;0.30;;;;;;;;;;5012019;28;20456;-78
2021/12/11 03:52:22;;;;;;;0.50;0.17;;;;;;;;;;5025539;28;20083;-87
2021/12/11 03:54:52;;;;;;;0.20;0.20;;;;;;;;;;5033305;28;20061;-82
2021/12/11 03:57:23;;;;;;;0.75;0.40;;;;;;;;;;4999078;28;20080;-78
2021/12/11 03:59:52;;;;;;;0.68;0.20;;;;;;;;;;5033113;28;20091;-81
2021/12/11 04:02:25;;;;;;;1.45;0.30;;;;;;;;;;5015803;28;20041;-81
2021/12/11 04:04:58;;;;;;;2.00;0.32;;;;;;;;;;5015829;28;20043;-87
2021/12/11 04:07:29;;;;;;;0.73;0.50;;;;;;;;;;5015385;28;20072;-78
2021/12/11 04:09:57;;;;;;;1.05;0.80;;;;;;;;;;4999437;28;20049;-87
2021/12/11 04:12:25;;;;;;;0.77;0.40;;;;;;;;;;5015318;28;20042;-78
2021/12/11 04:14:56;;;;;;;1.17;0.40;;;;;;;;;;4998996;28;20139;-82
2021/12/11 04:17:24;;;;;;;0.93;0.63;;;;;;;;;;5017623;28;20497;-78
2021/12/11 04:19:55;;;;;;;1.17;0.73;;;;;;;;;;5019272;28;20164;-81
2021/12/11 04:22:23;;;;;;;0.80;0.60;;;;;;;;;;5019365;28;20091;-82
2021/12/11 04:24:52;;;;;;;2.05;1.60;;;;;;;;;;5019638;28;20049;-79
2021/12/11 04:27:21;;;;;;;1.23;0.60;;;;;;;;;;5036712;28;20038;-78
2021/12/11 04:29:50;;;;;;;0.50;0.40;;;;;;;;;;5019123;28;20073;-79
2021/12/11 04:32:20;;;;;;;0.82;0.50;;;;;;;;;;5019009;28;20389;-78
2021/12/11 04:34:48;;;;;;;1.27;0.52;;;;;;;;;;5002990;28;20488;-79
2021/12/11 04:37:18;;;;;;;1.38;0.30;;;;;;;;;;5019002;28;20461;-81
2021/12/11 04:39:49;;;;;;;0.45;0.45;;;;;;;;;;5019563;28;20550;-88
2021/12/11 04:42:54;;;;;;;1.13;0.40;;;;;;;;;;5037170;28;20034;-87
2021/12/11 04:45:16;;;;;;;0.30;0.30;;;;;;;;;;5018777;28;20052;-79
2021/12/11 04:47:53;;;;;;;1.35;0.32;;;;;;;;;;5036797;28;20041;-82
2021/12/11 04:50:36;;;;;;;0.35;0.30;;;;;;;;;;5020041;28;20472;-86
2021/12/11 04:53:09;;;;;;;;;;;;;;;;;;5020420;28;20049;-79
2021/12/11 04:56:15;;;;;;;0.40;0.30;;;;;;;;;;5020550;28;20312;-82
2021/12/11 05:12:05;;;;;;;1.15;0.60;;;;;;;;;;5019718;28;20045;-82
2021/12/11 05:14:32;;;;;;;1.90;0.52;;;;;;;;;;5018846;28;20136;-81
2021/12/11 05:17:00;;;;;;;4.45;0.60;;;;;;;;;;5037604;28;20041;-78
2021/12/11 05:19:27;;;;;;;1.08;0.30;;;;;;;;;;5018963;28;20132;-79
2021/12/11 05:21:55;;;;;;;0.40;0.40;;;;;;;;;;5018839;28;20493;-78
2021/12/11 05:24:23;;;;;;;0.30;0.30;;;;;;;;;;5018500;28;20048;-79
2021/12/11 05:26:52;;;;;;;0.30;0.30;;;;;;;;;;5001914;28;20049;-81
2021/12/11 05:29:20;;;;;;;0.30;0.30;;;;;;;;;;5035796;28;20490;-79
2021/12/11 05:31:48;;;;;;;2.33;0.55;;;;;;;;;;5018309;28;20059;-81
2021/12/11 05:34:15;;;;;;;2.22;0.57;;;;;;;;;;5036373;28;20037;-78
2021/12/11 05:36:43;;;;;;;1.60;0.45;;;;;;;;;;5036251;28;20033;-79
2021/12/11 05:39:15;;;;;;;2.08;0.45;;;;;;;;;;5036167;28;20068;-78
2021/12/11 05:42:04;;;;;;;2.25;0.52;;;;;;;;;;5018508;28;20045;-88
2021/12/11 05:44:32;;;;;;;0.60;0.40;;;;;;;;;;5019193;28;20082;-87
2021/12/11 05:47:00;;;;;;;2.08;0.50;;;;;;;;;;5035021;28;20037;-78
2021/12/11 05:49:29;;;;;;;2.58;0.73;;;;;;;;;;5021120;28;20385;-81
2021/12/11 05:51:57;;;;;;;1.42;0.60;;;;;;;;;;5017745;28;20050;-78
2021/12/11 05:54:26;;;;;;;1.30;0.77;;;;;;;;;;5018137;28;20037;-78
2021/12/11 05:56:59;;;;;;;1.52;0.63;;;;;;;;;;5035766;28;20072;-78
2021/12/11 05:59:27;;;;;;;1.58;0.80;;;;;;;;;;5035343;28;20111;-87
2021/12/11 06:01:55;;;;;;;0.63;0.40;;;;;;;;;;5017128;28;20137;-87
2021/12/11 06:04:25;;;;;;;0.43;0.38;;;;;;;;;;5017545;28;20128;-87
2021/12/11 06:06:53;;;;;;;1.05;0.70;;;;;;;;;;5035678;28;20088;-82
2021/12/11 06:09:22;;;;;;;1.00;0.80;;;;;;;;;;5017759;28;20045;-79
2021/12/11 06:11:51;;;;;;;2.45;0.95;;;;;;;;;;5034942;28;20030;-81
2021/12/11 06:14:19;;;;;;;0.55;0.50;;;;;;;;;;5017134;28;20046;-86
2021/12/11 06:16:50;;;;;;;1.10;0.55;;;;;;;;;;5016946;28;20048;-78
2021/12/11 06:19:21;;;;;;;2.95;0.50;;;;;;;;;;5017053;28;20049;-81
2021/12/11 06:21:50;;;;;;;0.60;0.57;;;;;;;;;;5001709;28;20044;-78
2021/12/11 06:24:19;;;;;;;1.90;0.50;;;;;;;;;;5013886;28;20029;-86
2021/12/11 06:26:49;;;;;;;4.20;0.65;;;;;;;;;;5031008;28;20041;-88
2021/12/11 06:29:17;;;;;;;5.63;1.05;;;;;;;;;;5017305;28;20117;-77
2021/12/11 06:31:45;;;;;;;2.33;0.90;;;;;;;;;;5017471;28;20034;-82
2021/12/11 06:34:14;;;;;;;4.07;1.38;;;;;;;;;;5017179;28;20044;-82
2021/12/11 06:36:42;;;;;;;1.90;0.55;;;;;;;;;;5016798;28;20424;-78
2021/12/11 06:39:16;;;;;;;1.30;0.45;;;;;;;;;;5015844;28;20042;-78
2021/12/11 06:41:45;;;;;;;1.45;0.57;;;;;;;;;;5016589;28;20125;-77
2021/12/11 06:44:12;;;;;;;4.05;0.95;;;;;;;;;;5016784;28;20104;-78
2021/12/11 06:46:41;;;;;;;1.45;1.00;;;;;;;;;;5034109;28;20043;-81
2021/12/11 06:49:10;;;;;;;1.75;0.50;;;;;;;;;;5016393;28;20056;-85
2021/12/11 06:51:38;;;;;;;1.60;0.60;;;;;;;;;;5015851;28;20057;-78
2021/12/11 06:54:10;;;;;;;1.65;0.52;;;;;;;;;;5015987;28;20068;-78
2021/12/11 06:56:39;;;;;;;0.57;0.57;;;;;;;;;;5016563;28;20572;-78
2021/12/11 06:59:08;;;;;;;0.68;0.50;;;;;;;;;;5034071;28;20100;-78
2021/12/11 07:01:36;;;;;;;1.38;0.95;;;;;;;;;;5016174;28;20068;-78
2021/12/11 07:04:07;;;;;;;3.00;0.80;;;;;;;;;;5016533;28;20108;-79
2021/12/11 07:06:36;;;;;;;1.65;0.80;;;;;;;;;;5034063;28;20048;-78
2021/12/11 07:09:04;;;;;;;1.55;0.80;;;;;;;;;;5016073;28;20045;-76
2021/12/11 07:11:35;;;;;;;2.35;0.70;;;;;;;;;;5033973;28;20152;-76
2021/12/11 07:14:03;;;;;;;1.45;0.85;;;;;;;;;;5033364;28;20087;-77
2021/12/11 07:16:31;;;;;;;2.72;1.02;;;;;;;;;;5015687;28;20456;-76
2021/12/11 07:18:59;;;;;;;1.00;0.90;;;;;;;;;;5016136;28;20046;-76
2021/12/11 07:21:28;;;;;;;2.28;0.68;;;;;;;;;;5033329;28;20045;-76
2021/12/11 07:23:56;;;;;;;3.95;0.90;;;;;;;;;;5025267;28;20520;-76
2021/12/11 07:26:32;;;;;;;3.45;0.73;;;;;;;;;;5029112;28;20129;-76
2021/12/11 07:29:05;;;;;;;2.28;0.93;;;;;;;;;;5018835;28;20072;-77
2021/12/11 07:31:34;;;;;;;1.20;0.43;;;;;;;;;;5052930;28;20049;-75
2021/12/11 07:34:02;;;;;;;2.10;0.70;;;;;;;;;;5035079;28;20124;-75
2021/12/11 07:36:31;;;;;;;3.92;0.80;;;;;;;;;;5052907;28;20459;-75
2021/12/11 07:39:03;;;;;;;2.53;0.70;;;;;;;;;;5052415;28;20041;-78
2021/12/11 07:41:34;;;;;;;0.97;0.53;;;;;;;;;;5035480;28;20116;-80
2021/12/11 07:44:03;;;;;;;1.92;0.65;;;;;;;;;;5051443;28;20036;-79
2021/12/11 07:46:31;;;;;;;3.47;0.90;;;;;;;;;;5053047;28;20047;-75
2021/12/11 07:49:00;;;;;;;3.33;0.85;;;;;;;;;;5035179;28;20041;-78
2021/12/11 07:51:28;;;;;;;5.38;0.75;;;;;;;;;;5035008;28;20044;-78
2021/12/11 07:54:00;;;;;;;4.57;1.00;;;;;;;;;;5034707;28;20453;-75
2021/12/11 07:56:27;;;;;;;5.18;0.70;;;;;;;;;;5033791;28;20068;-76
2021/12/11 07:58:59;;;;;;;4.35;1.27;;;;;;;;;;5034986;28;20036;-79
2021/12/11 08:01:30;;;;;;;6.07;1.10;;;;;;;;;;5034559;28;20037;-75
2021/12/11 08:04:00;;;;;;;5.32;1.30;;;;;;;;;;5018373;28;20079;-78
2021/12/11 08:06:30;;;;;;;3.92;0.77;;;;;;;;;;5035210;28;20041;-79
2021/12/11 08:08:57;;;;;;;3.42;1.00;;;;;;;;;;5052683;28;20085;-74
2021/12/11 08:11:30;;;;;;;2.53;0.90;;;;;;;;;;5029977;28;20053;-79
2021/12/11 08:14:05;;;;;;;4.43;0.73;;;;;;;;;;5041475;28;20052;-78
2021/12/11 08:16:44;;;;;;;3.10;0.82;;;;;;;;;;5026695;28;20048;-77
2021/12/11 08:19:19;;;;;;;;;;;;;;;;;;5014668;28;20045;-78
2021/12/11 08:21:47;;;;;;;1.30;1.08;;;;;;;;;;5024056;28;20004;-76
2021/12/11 08:24:16;;;;;;;3.20;1.20;;;;;;;;;;5043026;28;20044;-73
2021/12/11 08:26:45;;;;;;;5.40;1.30;;;;;;;;;;5029135;28;20033;-76
2021/12/11 08:29:14;;;;;;;1.85;1.10;;;;;;;;;;5023357;28;20053;-73
2021/12/11 08:31:43;;;;;;;1.65;1.00;;;;;;;;;;5041538;28;20052;-78
2021/12/11 08:34:11;;;;;;;2.53;1.48;;;;;;;;;;5022530;28;20038;-79
2021/12/11 08:36:39;;;;;;;1.08;0.73;;;;;;;;;;5023261;28;20037;-77
2021/12/11 08:39:09;;;;;;;1.42;0.85;;;;;;;;;;5032856;28;20037;-74
2021/12/11 08:41:37;;;;;;;1.35;0.88;;;;;;;;;;5018088;28;20508;-74
2021/12/11 08:44:10;;;;;;;1.95;0.95;;;;;;;;;;5022227;28;20037;-77
2021/12/11 08:46:38;;;;;;;;;;;;;;;;;;5041323;28;20041;-78
2021/12/11 08:49:09;;;;;;;2.28;1.00;;;;;;;;;;5016284;28;19969;-77
2021/12/11 08:51:39;;;;;;;2.67;1.27;;;;;;;;;;5039041;28;20474;-77
2021/12/11 08:54:10;;;;;;;2.75;1.50;;;;;;;;;;5024645;28;20052;-74
2021/12/11 08:56:38;;;;;;;2.47;1.85;;;;;;;;;;5037300;28;20049;-75
2021/12/11 08:59:06;;;;;;;2.20;1.58;;;;;;;;;;5039102;28;20041;-77
2021/12/11 09:01:39;;;;;;;4.80;1.30;;;;;;;;;;5039332;28;20041;-77
2021/12/11 09:04:17;;;;;;;0.98;0.90;;;;;;;;;;5042718;28;20045;-77
2021/12/11 09:06:50;;;;;;;1.55;1.05;;;;;;;;;;5044296;28;20036;-77
2021/12/11 09:09:22;;;;;;;1.35;0.90;;;;;;;;;;5025590;28;20136;-77
2021/12/11 09:11:54;;;;;;;2.00;1.33;;;;;;;;;;5020695;28;20143;-74
2021/12/11 09:14:26;;;;;;;5.95;1.70;;;;;;;;;;5040037;28;20120;-74
2021/12/11 09:17:00;;;;;;;5.50;2.28;;;;;;;;;;5028808;28;20138;-76
2021/12/11 09:19:34;;;;;;;2.80;1.10;;;;;;;;;;5046454;28;20052;-76
2021/12/11 09:22:28;;;;;;;7.03;1.20;;;;;;;;;;5037205;28;20476;-76
2021/12/11 09:25:03;;;;;;;4.93;1.48;;;;;;;;;;5034325;28;20080;-79
2021/12/11 09:27:31;;;;;;;4.97;1.17;;;;;;;;;;5036917;28;20049;-76
2021/12/11 09:30:22;;;;;;;5.53;1.30;;;;;;;;;;5020297;28;20041;-77
2021/12/11 09:32:52;;;;;;;4.55;1.20;;;;;;;;;;5016854;28;20045;-77
2021/12/11 09:35:23;;;;;;;7.40;2.42;;;;;;;;;;5028819;28;20056;-76
2021/12/11 09:37:54;;;;;;;3.78;2.55;;;;;;;;;;5004926;28;20053;-74
2021/12/11 09:40:39;;;;;;;5.60;1.70;;;;;;;;;;5034289;28;20408;-76
2021/12/11 09:43:08;;;;;;;2.17;1.30;;;;;;;;;;5016910;28;20048;-78
2021/12/11 09:45:40;;;;;;;4.22;2.10;;;;;;;;;;5033212;28;20470;-76
2021/12/11 09:48:10;;;;;;;6.70;1.63;;;;;;;;;;5026988;28;20135;-76
2021/12/11 09:50:47;;;;;;;0.70;0.65;;;;;;;;;;5042539;28;20033;-80
2021/12/11 09:53:16;;;;;;;3.35;0.77;;;;;;;;;;5027520;28;20131;-76
2021/12/11 09:55:44;;;;;;;1.52;1.00;;;;;;;;;;5048157;28;20048;-76
2021/12/11 09:58:13;;;;;;;3.65;1.17;;;;;;;;;;5029027;28;20496;-78
2021/12/11 10:00:44;;;;;;;4.68;0.70;;;;;;;;;;5023242;28;20038;-77
2021/12/11 10:03:14;;;;;;;3.17;1.13;;;;;;;;;;5043007;28;20048;-73
2021/12/11 10:05:49;;;;;;;2.55;1.70;;;;;;;;;;5042271;28;20429;-77
2021/12/11 10:08:32;;;;;;;1.30;0.90;;;;;;;;;;5041859;28;20045;-74
2021/12/11 10:11:09;;;;;;;1.67;0.90;;;;;;;;;;5024290;28;20555;-76
2021/12/11 10:14:03;;;;;;;1.35;0.50;;;;;;;;;;5037526;28;20049;-77
2021/12/11 10:16:32;;;;;;;3.92;0.85;;;;;;;;;;5028587;28;20077;-79
2021/12/11 10:19:00;;;;;;;1.80;0.90;;;;;;;;;;5034071;28;20041;-78
2021/12/11 10:21:27;;;;;;;2.13;0.50;;;;;;;;;;5033906;28;20038;-75
2021/12/11 10:23:57;;;;;;;2.63;0.63;;;;;;;;;;5016999;28;20042;-77
2021/12/11 10:26:25;;;;;;;5.60;0.98;;;;;;;;;;5013361;28;20045;-74
2021/12/11 10:28:59;;;;;;;4.55;0.98;;;;;;;;;;5026863;28;20037;-77
2021/12/11 10:31:35;;;;;;;2.22;0.80;;;;;;;;;;5026058;28;20037;-77
2021/12/11 10:34:05;;;;;;;3.05;0.98;;;;;;;;;;5047994;28;20082;-78
2021/12/11 10:36:34;;;;;;;1.38;0.75;;;;;;;;;;5021222;28;20072;-78
2021/12/11 10:39:04;;;;;;;3.67;1.20;;;;;;;;;;5047899;28;20048;-75
2021/12/11 10:41:32;;;;;;;2.40;0.77;;;;;;;;;;5024406;28;20045;-78
2021/12/11 10:44:06;;;;;;;0.52;0.52;;;;;;;;;;5023113;28;20397;-77
2021/12/11 10:46:39;;;;;;;1.05;0.82;;;;;;;;;;5013276;28;20095;-79
2021/12/11 10:49:08;;;;;;;1.05;0.57;;;;;;;;;;5015772;28;20052;-78
2021/12/11 10:51:43;;;;;;;3.30;0.90;;;;;;;;;;5004674;23;20061;-77
2021/12/11 10:54:13;;;;;;;2.95;0.93;;;;;;;;;;5025176;28;20041;-75
2021/12/11 10:56:42;;;;;;;3.08;1.38;;;;;;;;;;5026834;28;20132;-76
2021/12/11 10:59:12;;;;;;;4.15;1.08;;;;;;;;;;5001944;28;20036;-82
2021/12/11 11:01:43;;;;;;;3.47;1.35;;;;;;;;;;5025624;28;20061;-82
2021/12/11 11:04:18;;;;;;;3.13;1.08;;;;;;;;;;5029367;28;20045;-78
2021/12/11 11:06:47;;;;;;;;;;;;;;;;;;5043179;28;20072;-81
2021/12/11 11:09:16;;;;;;;4.15;1.20;;;;;;;;;;4999090;28;19928;-82
2021/12/11 11:11:46;;;;;;;3.20;1.08;;;;;;;;;;5015006;28;20253;-75
2021/12/11 11:14:15;;;;;;;3.25;1.60;;;;;;;;;;4998448;28;20067;-80
2021/12/11 11:16:45;;;;;;;2.85;1.23;;;;;;;;;;5007537;28;20046;-80
2021/12/11 11:19:16;;;;;;;5.15;1.48;;;;;;;;;;5053060;28;20041;-79
2021/12/11 11:21:46;;;;;;;2.95;1.10;;;;;;;;;;5026335;28;20124;-78
2021/12/11 11:24:14;;;;;;;4.30;1.20;;;;;;;;;;5027272;28;20116;-76
2021/12/11 11:26:45;;;;;;;2.55;1.00;;;;;;;;;;5025414;28;20044;-76
2021/12/11 11:29:17;;;;;;;3.75;0.98;;;;;;;;;;5014507;28;20057;-82
2021/12/11 11:31:46;;;;;;;3.30;1.30;;;;;;;;;;5013952;28;20087;-77
2021/12/11 11:34:15;;;;;;;2.55;0.80;;;;;;;;;;5051391;28;20049;-79
2021/12/11 11:36:43;;;;;;;3.15;1.30;;;;;;;;;;5034907;28;20120;-79
2021/12/11 11:39:18;;;;;;;5.25;1.17;;;;;;;;;;5014013;28;20045;-84
2021/12/11 11:41:50;;;;;;;3.38;1.20;;;;;;;;;;5022233;28;20066;-79
2021/12/11 11:44:21;;;;;;;2.83;1.55;;;;;;;;;;5040502;28;20137;-80
2021/12/11 11:46:49;;;;;;;7.25;1.30;;;;;;;;;;5040345;28;20037;-75
2021/12/11 11:49:18;;;;;;;8.00;1.10;;;;;;;;;;5032661;28;20095;-80
2021/12/11 11:51:50;;;;;;;2.42;1.17;;;;;;;;;;5022108;28;20076;-75
2021/12/11 11:54:19;;;;;;;4.65;1.25;;;;;;;;;;5041134;28;20120;-79
2021/12/11 11:56:49;;;;;;;3.72;1.38;;;;;;;;;;5021854;28;20136;-77
2021/12/11 11:59:17;;;;;;;3.13;0.95;;;;;;;;;;5015394;28;20608;-74
2021/12/11 12:01:47;;;;;;;5.07;1.60;;;;;;;;;;5005140;28;20041;-80
2021/12/11 12:04:18;;;;;;;2.50;1.00;;;;;;;;;;5024250;28;20049;-79
2021/12/11 12:06:48;;;;;;;3.20;0.85;;;;;;;;;;5020955;28;20226;-78
2021/12/11 12:09:16;;;;;;;5.68;1.50;;;;;;;;;;5015408;28;20033;-74
2021/12/11 12:11:44;;;;;;;4.85;1.58;;;;;;;;;;5027315;28;20567;-74
2021/12/11 12:14:14;;;;;;;4.65;1.27;;;;;;;;;;5030967;28;20055;-79
2021/12/11 12:16:43;;;;;;;4.38;1.52;;;;;;;;;;5001697;28;20115;-79
2021/12/11 12:19:12;;;;;;;4.05;1.52;;;;;;;;;;5017291;28;20064;-75
2021/12/11 12:21:42;;;;;;;4.18;1.45;;;;;;;;;;5036199;28;20033;-74
2021/12/11 12:24:10;;;;;;;4.30;1.58;;;;;;;;;;5043827;28;20179;-78
2021/12/11 12:26:41;;;;;;;7.53;1.50;;;;;;;;;;5036763;28;20055;-76
2021/12/11 12:29:10;;;;;;;7.70;1.95;;;;;;;;;;5034804;28;20487;-75
2021/12/11 12:31:58;;;;;;;10.73;3.20;;;;;;;;;;5015048;28;20136;-77
2021/12/11 12:34:26;;;;;;;6.90;2.13;;;;;;;;;;5032543;28;20053;-78
2021/12/11 12:36:54;;;;;;;7.35;2.00;;;;;;;;;;5021029;28;20064;-78
2021/12/11 12:39:23;;;;;;;11.05;2.22;;;;;;;;;;5038196;28;20489;-76
2021/12/11 12:42:04;;;;;;;6.70;1.65;;;;;;;;;;5055667;28;20047;-77
2021/12/11 12:44:33;;;;;;;2.38;1.50;;;;;;;;;;5026299;28;20133;-76
2021/12/11 12:47:09;;;;;;;11.00;1.90;;;;;;;;;;5025246;28;20514;-74
2021/12/11 12:49:39;;;;;;;5.43;1.58;;;;;;;;;;5020927;28;20047;-74
2021/12/11 12:52:12;;;;;;;8.55;1.95;;;;;;;;;;5055208;28;20055;-73
2021/12/11 12:54:39;;;;;;;6.93;2.55;;;;;;;;;;5026776;28;20056;-75
2021/12/11 12:57:14;;;;;;;13.32;2.55;;;;;;;;;;5024660;28;20053;-73
2021/12/11 12:59:49;;;;;;;8.25;2.30;;;;;;;;;;5036235;28;20037;-74
2021/12/11 13:02:18;;;;;;;13.90;2.47;;;;;;;;;;5024011;28;20522;-73
2021/12/11 13:04:49;;;;;;;11.05;2.45;;;;;;;;;;5024796;28;20435;-75
2021/12/11 13:07:18;;;;;;;9.52;2.30;;;;;;;;;;5037311;28;20489;-79
2021/12/11 13:09:46;;;;;;;7.60;2.25;;;;;;;;;;5028234;28;20051;-76
2021/12/11 13:12:17;;;;;;;8.60;2.38;;;;;;;;;;5021573;28;20415;-81
2021/12/11 13:14:46;;;;;;;8.07;2.05;;;;;;;;;;5021389;28;20140;-81
2021/12/11 13:17:16;;;;;;;5.00;1.42;;;;;;;;;;5055843;28;20068;-77
2021/12/11 13:19:47;;;;;;;7.10;1.80;;;;;;;;;;5036828;28;20049;-77
2021/12/11 13:22:17;;;;;;;5.70;1.88;;;;;;;;;;5036952;28;20076;-84
2021/12/11 13:24:49;;;;;;;7.35;1.60;;;;;;;;;;5055376;28;20571;-76
2021/12/11 13:27:20;;;;;;;6.75;1.48;;;;;;;;;;5020631;28;20052;-82
2021/12/11 13:29:52;;;;;;;3.53;1.00;;;;;;;;;;5020861;28;20049;-75
2021/12/11 13:32:22;;;;;;;5.00;1.00;;;;;;;;;;5055376;28;20403;-83
2021/12/11 13:34:52;;;;;;;2.17;1.00;;;;;;;;;;5037757;28;20045;-74
2021/12/11 13:37:22;;;;;;;2.97;1.15;;;;;;;;;;5020763;28;20083;-82
2021/12/11 13:39:51;;;;;;;2.63;0.98;;;;;;;;;;5036409;28;20040;-80
2021/12/11 13:42:20;;;;;;;1.75;0.55;;;;;;;;;;5020372;28;20492;-80
2021/12/11 13:44:50;;;;;;;1.20;0.60;;;;;;;;;;5020822;28;20045;-74
2021/12/11 13:47:21;;;;;;;1.65;0.68;;;;;;;;;;5037144;28;20048;-80
2021/12/11 13:49:52;;;;;;;0.75;0.40;;;;;;;;;;5054456;28;20107;-75
2021/12/11 13:52:20;;;;;;;1.00;0.77;;;;;;;;;;5054616;28;20045;-74
2021/12/11 13:54:49;;;;;;;1.55;0.60;;;;;;;;;;5020637;28;20064;-75
2021/12/11 13:57:24;;;;;;;2.83;0.90;;;;;;;;;;5037482;28;20055;-74
2021/12/11 13:59:57;;;;;;;1.80;0.63;;;;;;;;;;5037907;28;20056;-83
2021/12/11 14:02:24;;;;;;;;;;;;;;;;;;5037840;28;20188;-75
2021/12/11 14:04:56;;;;;;;3.75;0.75;;;;;;;;;;5037761;28;19921;-81
2021/12/11 14:07:27;;;;;;;5.13;0.60;;;;;;;;;;5037305;28;20429;-75
2021/12/11 14:09:56;;;;;;;1.67;0.70;;;;;;;;;;5033588;28;20136;-74
2021/12/11 14:12:25;;;;;;;2.70;0.70;;;;;;;;;;5054555;28;20534;-74
2021/12/11 14:14:54;;;;;;;3.33;0.95;;;;;;;;;;5020506;28;20049;-75
2021/12/11 14:17:22;;;;;;;3.25;0.98;;;;;;;;;;5019780;28;20049;-79
2021/12/11 14:19:50;;;;;;;4.05;1.10;;;;;;;;;;5036597;28;20040;-81
2021/12/11 14:22:23;;;;;;;1.88;0.80;;;;;;;;;;5036935;28;20473;-80
2021/12/11 14:24:53;;;;;;;4.25;1.02;;;;;;;;;;5037022;28;20156;-79
2021/12/11 14:27:22;;;;;;;2.55;0.90;;;;;;;;;;5036046;28;20099;-75
2021/12/11 14:29:55;;;;;;;1.42;0.63;;;;;;;;;;5037061;28;20131;-80
2021/12/11 14:32:28;;;;;;;2.63;0.50;;;;;;;;;;5036735;28;20128;-83
2021/12/11 14:34:57;;;;;;;1.23;0.70;;;;;;;;;;5020235;28;20080;-81
2021/12/11 14:37:25;;;;;;;2.72;0.88;;;;;;;;;;5036604;28;20045;-82
2021/12/11 14:39:52;;;;;;;2.13;0.70;;;;;;;;;;5036326;28;20454;-76
2021/12/11 14:42:28;;;;;;;2.22;0.93;;;;;;;;;;5054034;28;20040;-82
2021/12/11 14:44:58;;;;;;;2.80;1.00;;;;;;;;;;5036584;28;20500;-82
2021/12/11 14:47:26;;;;;;;2.47;0.63;;;;;;;;;;5020106;28;20091;-76
2021/12/11 14:49:56;;;;;;;3.08;0.85;;;;;;;;;;5018878;28;20041;-80
2021/12/11 14:52:25;;;;;;;6.18;1.00;;;;;;;;;;5015930;28;20045;-80
2021/12/11 14:54:55;;;;;;;2.30;0.77;;;;;;;;;;5016017;28;20052;-76
2021/12/11 14:57:23;;;;;;;1.35;0.60;;;;;;;;;;5033976;28;20069;-77
2021/12/11 14:59:53;;;;;;;1.35;1.08;;;;;;;;;;5015711;28;20939;-79
2021/12/11 15:02:24;;;;;;;1.98;0.75;;;;;;;;;;5014869;28;20052;-76
2021/12/11 15:04:54;;;;;;;1.40;1.30;;;;;;;;;;5016622;28;20053;-75
2021/12/11 15:07:23;;;;;;;1.77;0.65;;;;;;;;;;5032517;28;20048;-76
2021/12/11 15:09:55;;;;;;;4.70;1.63;;;;;;;;;;5016583;28;20045;-81
2021/12/11 15:12:23;;;;;;;1.77;0.70;;;;;;;;;;5015584;28;20437;-81
2021/12/11 15:14:51;;;;;;;3.97;0.82;;;;;;;;;;5015842;28;20045;-80
2021/12/11 15:17:20;;;;;;;0.90;0.90;;;;;;;;;;5033315;28;20046;-74
2021/12/11 15:19:50;;;;;;;1.63;0.82;;;;;;;;;;5015578;28;20049;-76